sensor_id;sensor_type;location;lat;lon;timestamp;P1;durP1;ratioP1;P2;durP2;ratioP2
22449;SDS011;11392;57.390;-2.468;2023-08-07T00:02:25;5.35;;;3.72;;
22449;SDS011;11392;57.390;-2.468;2023-08-07T00:04:52;5.63;;;4.28;;
22449;SDS011;11392;57.390;-2.468;2023-08-07T00:07:19;7.57;;;5.55;;
22449;SDS011;11392;57.390;-2.468;2023-08-07T00:09:46;7.25;;;5.53;;
22449;SDS011;11392;57.390;-2.468;2023-08-07T00:12:13;7.50;;;5.45;;
22449;SDS011;11392;57.390;-2.468;2023-08-07T00:14:40;10.85;;;6.50;;
22449;SDS011;11392;57.390;-2.468;2023-08-07T00:17:07;8.07;;;5.70;;
22449;SDS011;11392;57.390;-2.468;2023-08-07T00:19:35;8.40;;;6.47;;
22449;SDS011;11392;57.390;-2.468;2023-08-07T00:22:02;9.57;;;7.45;;
22449;SDS011;11392;57.390;-2.468;2023-08-07T00:24:29;10.02;;;7.07;;
22449;SDS011;11392;57.390;-2.468;2023-08-07T00:26:56;10.88;;;7.57;;
22449;SDS011;11392;57.390;-2.468;2023-08-07T00:29:24;10.13;;;7.22;;
22449;SDS011;11392;57.390;-2.468;2023-08-07T00:31:51;9.35;;;6.50;;
22449;SDS011;11392;57.390;-2.468;2023-08-07T00:34:18;9.43;;;7.30;;
22449;SDS011;11392;57.390;-2.468;2023-08-07T00:36:45;10.70;;;6.30;;
22449;SDS011;11392;57.390;-2.468;2023-08-07T00:39:12;7.22;;;5.38;;
22449;SDS011;11392;57.390;-2.468;2023-08-07T00:41:39;7.80;;;5.57;;
22449;SDS011;11392;57.390;-2.468;2023-08-07T00:44:06;5.25;;;4.35;;
22449;SDS011;11392;57.390;-2.468;2023-08-07T00:46:33;6.68;;;3.47;;
22449;SDS011;11392;57.390;-2.468;2023-08-07T00:49:00;3.53;;;3.17;;
22449;SDS011;11392;57.390;-2.468;2023-08-07T00:51:28;6.18;;;4.13;;
22449;SDS011;11392;57.390;-2.468;2023-08-07T00:53:55;3.85;;;2.97;;
22449;SDS011;11392;57.390;-2.468;2023-08-07T00:56:23;3.58;;;3.25;;
22449;SDS011;11392;57.390;-2.468;2023-08-07T00:58:51;3.35;;;2.92;;
22449;SDS011;11392;57.390;-2.468;2023-08-07T01:01:18;4.18;;;3.25;;
22449;SDS011;11392;57.390;-2.468;2023-08-07T01:03:46;4.60;;;3.42;;
22449;SDS011;11392;57.390;-2.468;2023-08-07T01:06:13;4.55;;;3.58;;
22449;SDS011;11392;57.390;-2.468;2023-08-07T01:08:40;5.60;;;3.45;;
22449;SDS011;11392;57.390;-2.468;2023-08-07T01:11:23;7.10;;;4.50;;
22449;SDS011;11392;57.390;-2.468;2023-08-07T01:13:57;6.53;;;3.75;;
22449;SDS011;11392;57.390;-2.468;2023-08-07T01:16:39;4.63;;;3.35;;
22449;SDS011;11392;57.390;-2.468;2023-08-07T01:19:19;3.90;;;3.40;;
22449;SDS011;11392;57.390;-2.468;2023-08-07T01:22:04;4.22;;;3.78;;
22449;SDS011;11392;57.390;-2.468;2023-08-07T01:24:32;5.68;;;3.63;;
22449;SDS011;11392;57.390;-2.468;2023-08-07T01:27:02;3.85;;;3.38;;
22449;SDS011;11392;57.390;-2.468;2023-08-07T01:32:34;6.60;;;4.43;;
22449;SDS011;11392;57.390;-2.468;2023-08-07T01:35:14;4.97;;;3.65;;
22449;SDS011;11392;57.390;-2.468;2023-08-07T01:37:42;3.35;;;2.83;;
22449;SDS011;11392;57.390;-2.468;2023-08-07T01:40:11;4.47;;;3.85;;
22449;SDS011;11392;57.390;-2.468;2023-08-07T01:42:39;3.45;;;3.00;;
22449;SDS011;11392;57.390;-2.468;2023-08-07T01:45:07;5.18;;;4.00;;
22449;SDS011;11392;57.390;-2.468;2023-08-07T01:47:34;7.65;;;4.07;;
22449;SDS011;11392;57.390;-2.468;2023-08-07T01:50:02;7.30;;;3.95;;
22449;SDS011;11392;57.390;-2.468;2023-08-07T01:52:29;5.20;;;3.67;;
22449;SDS011;11392;57.390;-2.468;2023-08-07T01:54:56;4.32;;;3.70;;
22449;SDS011;11392;57.390;-2.468;2023-08-07T01:57:24;6.00;;;3.75;;
22449;SDS011;11392;57.390;-2.468;2023-08-07T01:59:51;5.03;;;3.55;;
22449;SDS011;11392;57.390;-2.468;2023-08-07T02:02:18;9.98;;;4.63;;
22449;SDS011;11392;57.390;-2.468;2023-08-07T02:04:45;4.78;;;3.25;;
22449;SDS011;11392;57.390;-2.468;2023-08-07T02:07:13;5.03;;;3.83;;
22449;SDS011;11392;57.390;-2.468;2023-08-07T02:09:40;6.55;;;3.90;;
22449;SDS011;11392;57.390;-2.468;2023-08-07T02:12:07;5.30;;;3.38;;
22449;SDS011;11392;57.390;-2.468;2023-08-07T02:14:34;6.32;;;4.25;;
22449;SDS011;11392;57.390;-2.468;2023-08-07T02:17:01;5.47;;;3.90;;
22449;SDS011;11392;57.390;-2.468;2023-08-07T02:19:28;3.90;;;3.40;;
22449;SDS011;11392;57.390;-2.468;2023-08-07T02:21:55;5.05;;;4.20;;
22449;SDS011;11392;57.390;-2.468;2023-08-07T02:24:22;4.60;;;3.97;;
22449;SDS011;11392;57.390;-2.468;2023-08-07T02:26:49;4.18;;;3.65;;
22449;SDS011;11392;57.390;-2.468;2023-08-07T02:29:16;5.63;;;3.95;;
22449;SDS011;11392;57.390;-2.468;2023-08-07T02:31:43;5.15;;;3.90;;
22449;SDS011;11392;57.390;-2.468;2023-08-07T02:34:10;6.57;;;3.80;;
22449;SDS011;11392;57.390;-2.468;2023-08-07T02:36:37;5.20;;;3.42;;
22449;SDS011;11392;57.390;-2.468;2023-08-07T02:39:04;5.22;;;3.95;;
22449;SDS011;11392;57.390;-2.468;2023-08-07T02:41:31;4.88;;;3.55;;
22449;SDS011;11392;57.390;-2.468;2023-08-07T02:43:58;5.10;;;3.67;;
22449;SDS011;11392;57.390;-2.468;2023-08-07T02:46:25;5.63;;;3.95;;
22449;SDS011;11392;57.390;-2.468;2023-08-07T02:48:52;4.88;;;3.55;;
22449;SDS011;11392;57.390;-2.468;2023-08-07T02:51:20;4.75;;;3.92;;
22449;SDS011;11392;57.390;-2.468;2023-08-07T02:53:47;5.75;;;4.07;;
22449;SDS011;11392;57.390;-2.468;2023-08-07T02:56:14;4.85;;;3.88;;
22449;SDS011;11392;57.390;-2.468;2023-08-07T02:58:41;4.55;;;3.70;;
22449;SDS011;11392;57.390;-2.468;2023-08-07T03:01:08;5.63;;;4.78;;
22449;SDS011;11392;57.390;-2.468;2023-08-07T03:03:35;11.52;;;9.30;;
22449;SDS011;11392;57.390;-2.468;2023-08-07T03:06:02;6.07;;;4.97;;
22449;SDS011;11392;57.390;-2.468;2023-08-07T03:08:29;6.88;;;4.85;;
22449;SDS011;11392;57.390;-2.468;2023-08-07T03:10:57;8.32;;;4.45;;
22449;SDS011;11392;57.390;-2.468;2023-08-07T03:13:25;5.25;;;4.50;;
22449;SDS011;11392;57.390;-2.468;2023-08-07T03:15:59;4.78;;;4.00;;
22449;SDS011;11392;57.390;-2.468;2023-08-07T03:18:27;4.35;;;3.55;;
22449;SDS011;11392;57.390;-2.468;2023-08-07T03:20:55;7.07;;;4.38;;
22449;SDS011;11392;57.390;-2.468;2023-08-07T03:23:23;7.45;;;4.55;;
22449;SDS011;11392;57.390;-2.468;2023-08-07T03:25:50;5.53;;;4.32;;
22449;SDS011;11392;57.390;-2.468;2023-08-07T03:28:43;5.78;;;4.03;;
22449;SDS011;11392;57.390;-2.468;2023-08-07T03:31:13;5.35;;;3.42;;
22449;SDS011;11392;57.390;-2.468;2023-08-07T03:33:41;5.90;;;3.90;;
22449;SDS011;11392;57.390;-2.468;2023-08-07T03:36:08;4.65;;;3.47;;
22449;SDS011;11392;57.390;-2.468;2023-08-07T03:38:35;4.40;;;3.78;;
22449;SDS011;11392;57.390;-2.468;2023-08-07T03:41:03;6.30;;;4.70;;
22449;SDS011;11392;57.390;-2.468;2023-08-07T03:43:30;8.55;;;6.00;;
22449;SDS011;11392;57.390;-2.468;2023-08-07T03:45:57;6.25;;;4.60;;
22449;SDS011;11392;57.390;-2.468;2023-08-07T03:48:28;6.43;;;5.03;;
22449;SDS011;11392;57.390;-2.468;2023-08-07T03:51:05;13.65;;;5.75;;
22449;SDS011;11392;57.390;-2.468;2023-08-07T03:53:35;5.57;;;4.80;;
22449;SDS011;11392;57.390;-2.468;2023-08-07T03:56:03;7.65;;;5.45;;
22449;SDS011;11392;57.390;-2.468;2023-08-07T03:58:30;6.35;;;4.95;;
22449;SDS011;11392;57.390;-2.468;2023-08-07T04:00:57;6.53;;;4.65;;
22449;SDS011;11392;57.390;-2.468;2023-08-07T04:03:24;5.78;;;4.35;;
22449;SDS011;11392;57.390;-2.468;2023-08-07T04:05:52;8.15;;;4.45;;
22449;SDS011;11392;57.390;-2.468;2023-08-07T04:08:20;4.90;;;3.92;;
22449;SDS011;11392;57.390;-2.468;2023-08-07T04:13:44;4.68;;;3.30;;
22449;SDS011;11392;57.390;-2.468;2023-08-07T04:16:11;4.95;;;3.90;;
22449;SDS011;11392;57.390;-2.468;2023-08-07T04:18:38;5.05;;;3.80;;
22449;SDS011;11392;57.390;-2.468;2023-08-07T04:21:05;6.15;;;3.60;;
22449;SDS011;11392;57.390;-2.468;2023-08-07T04:23:32;5.85;;;4.13;;
22449;SDS011;11392;57.390;-2.468;2023-08-07T04:26:00;3.42;;;3.00;;
22449;SDS011;11392;57.390;-2.468;2023-08-07T04:28:27;6.75;;;3.45;;
22449;SDS011;11392;57.390;-2.468;2023-08-07T04:30:55;3.45;;;2.70;;
22449;SDS011;11392;57.390;-2.468;2023-08-07T04:33:22;3.85;;;2.80;;
22449;SDS011;11392;57.390;-2.468;2023-08-07T04:35:49;5.68;;;3.15;;
22449;SDS011;11392;57.390;-2.468;2023-08-07T04:38:16;5.38;;;2.88;;
22449;SDS011;11392;57.390;-2.468;2023-08-07T04:40:44;5.85;;;3.38;;
22449;SDS011;11392;57.390;-2.468;2023-08-07T04:43:15;4.35;;;3.67;;
22449;SDS011;11392;57.390;-2.468;2023-08-07T04:45:43;6.57;;;5.18;;
22449;SDS011;11392;57.390;-2.468;2023-08-07T04:48:12;7.35;;;6.05;;
22449;SDS011;11392;57.390;-2.468;2023-08-07T04:50:40;6.72;;;5.03;;
22449;SDS011;11392;57.390;-2.468;2023-08-07T04:53:07;6.50;;;5.22;;
22449;SDS011;11392;57.390;-2.468;2023-08-07T04:55:34;6.25;;;4.50;;
22449;SDS011;11392;57.390;-2.468;2023-08-07T04:58:01;6.50;;;4.50;;
22449;SDS011;11392;57.390;-2.468;2023-08-07T05:00:28;5.25;;;4.05;;
22449;SDS011;11392;57.390;-2.468;2023-08-07T05:02:55;5.05;;;3.70;;
22449;SDS011;11392;57.390;-2.468;2023-08-07T05:05:23;6.35;;;4.32;;
22449;SDS011;11392;57.390;-2.468;2023-08-07T05:07:50;5.13;;;4.57;;
22449;SDS011;11392;57.390;-2.468;2023-08-07T05:10:17;5.10;;;4.07;;
22449;SDS011;11392;57.390;-2.468;2023-08-07T05:12:44;5.35;;;4.05;;
22449;SDS011;11392;57.390;-2.468;2023-08-07T05:15:11;7.18;;;4.25;;
22449;SDS011;11392;57.390;-2.468;2023-08-07T05:17:38;6.53;;;5.25;;
22449;SDS011;11392;57.390;-2.468;2023-08-07T05:20:05;5.47;;;4.25;;
22449;SDS011;11392;57.390;-2.468;2023-08-07T05:22:33;4.45;;;3.88;;
22449;SDS011;11392;57.390;-2.468;2023-08-07T05:25:00;7.50;;;4.85;;
22449;SDS011;11392;57.390;-2.468;2023-08-07T05:27:27;5.15;;;4.10;;
22449;SDS011;11392;57.390;-2.468;2023-08-07T05:29:54;6.32;;;4.32;;
22449;SDS011;11392;57.390;-2.468;2023-08-07T05:32:21;4.68;;;4.07;;
22449;SDS011;11392;57.390;-2.468;2023-08-07T05:34:48;5.18;;;3.17;;
22449;SDS011;11392;57.390;-2.468;2023-08-07T05:37:16;5.53;;;3.55;;
22449;SDS011;11392;57.390;-2.468;2023-08-07T05:39:44;6.45;;;4.28;;
22449;SDS011;11392;57.390;-2.468;2023-08-07T05:42:11;4.43;;;3.70;;
22449;SDS011;11392;57.390;-2.468;2023-08-07T05:44:38;5.28;;;3.97;;
22449;SDS011;11392;57.390;-2.468;2023-08-07T05:47:06;4.88;;;3.60;;
22449;SDS011;11392;57.390;-2.468;2023-08-07T05:49:33;3.50;;;3.20;;
22449;SDS011;11392;57.390;-2.468;2023-08-07T05:52:00;3.92;;;3.00;;
22449;SDS011;11392;57.390;-2.468;2023-08-07T05:54:27;4.80;;;3.33;;
22449;SDS011;11392;57.390;-2.468;2023-08-07T05:56:54;3.53;;;3.05;;
22449;SDS011;11392;57.390;-2.468;2023-08-07T05:59:21;3.97;;;2.80;;
22449;SDS011;11392;57.390;-2.468;2023-08-07T06:01:48;2.72;;;2.42;;
22449;SDS011;11392;57.390;-2.468;2023-08-07T06:04:16;3.40;;;2.83;;
22449;SDS011;11392;57.390;-2.468;2023-08-07T06:06:43;4.72;;;2.60;;
22449;SDS011;11392;57.390;-2.468;2023-08-07T06:09:12;3.53;;;2.60;;
22449;SDS011;11392;57.390;-2.468;2023-08-07T06:11:41;3.03;;;2.60;;
22449;SDS011;11392;57.390;-2.468;2023-08-07T06:14:09;4.18;;;2.80;;
22449;SDS011;11392;57.390;-2.468;2023-08-07T06:16:36;3.03;;;2.30;;
22449;SDS011;11392;57.390;-2.468;2023-08-07T06:19:03;3.00;;;2.45;;
22449;SDS011;11392;57.390;-2.468;2023-08-07T06:21:42;2.85;;;2.50;;
22449;SDS011;11392;57.390;-2.468;2023-08-07T06:24:09;2.88;;;2.40;;
22449;SDS011;11392;57.390;-2.468;2023-08-07T06:26:36;3.35;;;2.53;;
22449;SDS011;11392;57.390;-2.468;2023-08-07T06:29:03;3.53;;;2.38;;
22449;SDS011;11392;57.390;-2.468;2023-08-07T06:31:30;4.80;;;2.42;;
22449;SDS011;11392;57.390;-2.468;2023-08-07T06:33:57;2.15;;;1.95;;
22449;SDS011;11392;57.390;-2.468;2023-08-07T06:36:26;2.67;;;2.13;;
22449;SDS011;11392;57.390;-2.468;2023-08-07T06:38:53;2.60;;;1.85;;
22449;SDS011;11392;57.390;-2.468;2023-08-07T06:41:20;2.60;;;2.40;;
22449;SDS011;11392;57.390;-2.468;2023-08-07T06:43:47;3.13;;;2.22;;
22449;SDS011;11392;57.390;-2.468;2023-08-07T06:46:14;2.42;;;2.13;;
22449;SDS011;11392;57.390;-2.468;2023-08-07T06:48:41;2.33;;;2.13;;
22449;SDS011;11392;57.390;-2.468;2023-08-07T06:51:08;2.55;;;2.20;;
22449;SDS011;11392;57.390;-2.468;2023-08-07T06:53:35;3.45;;;3.05;;
22449;SDS011;11392;57.390;-2.468;2023-08-07T06:56:02;2.97;;;1.80;;
22449;SDS011;11392;57.390;-2.468;2023-08-07T06:58:29;2.38;;;2.17;;
22449;SDS011;11392;57.390;-2.468;2023-08-07T07:00:56;2.03;;;1.83;;
22449;SDS011;11392;57.390;-2.468;2023-08-07T07:03:22;2.30;;;2.10;;
22449;SDS011;11392;57.390;-2.468;2023-08-07T07:05:49;1.83;;;1.67;;
22449;SDS011;11392;57.390;-2.468;2023-08-07T07:08:16;1.98;;;1.85;;
22449;SDS011;11392;57.390;-2.468;2023-08-07T07:10:43;1.80;;;1.70;;
22449;SDS011;11392;57.390;-2.468;2023-08-07T07:13:10;2.35;;;1.95;;
22449;SDS011;11392;57.390;-2.468;2023-08-07T07:15:37;1.77;;;1.67;;
22449;SDS011;11392;57.390;-2.468;2023-08-07T07:18:04;2.05;;;1.83;;
22449;SDS011;11392;57.390;-2.468;2023-08-07T07:20:31;2.17;;;1.67;;
22449;SDS011;11392;57.390;-2.468;2023-08-07T07:22:58;2.20;;;1.80;;
22449;SDS011;11392;57.390;-2.468;2023-08-07T07:25:25;2.17;;;1.83;;
22449;SDS011;11392;57.390;-2.468;2023-08-07T07:27:52;1.73;;;1.55;;
22449;SDS011;11392;57.390;-2.468;2023-08-07T07:30:20;1.63;;;1.52;;
22449;SDS011;11392;57.390;-2.468;2023-08-07T07:32:49;1.65;;;1.55;;
22449;SDS011;11392;57.390;-2.468;2023-08-07T07:35:16;2.47;;;1.70;;
22449;SDS011;11392;57.390;-2.468;2023-08-07T07:37:43;2.13;;;1.67;;
22449;SDS011;11392;57.390;-2.468;2023-08-07T07:40:10;3.00;;;1.85;;
22449;SDS011;11392;57.390;-2.468;2023-08-07T07:42:37;2.67;;;1.80;;
22449;SDS011;11392;57.390;-2.468;2023-08-07T07:45:05;1.98;;;1.60;;
22449;SDS011;11392;57.390;-2.468;2023-08-07T07:47:32;1.83;;;1.50;;
22449;SDS011;11392;57.390;-2.468;2023-08-07T07:50:07;2.10;;;1.70;;
22449;SDS011;11392;57.390;-2.468;2023-08-07T07:52:35;2.35;;;1.88;;
22449;SDS011;11392;57.390;-2.468;2023-08-07T07:55:02;1.98;;;1.50;;
22449;SDS011;11392;57.390;-2.468;2023-08-07T07:57:29;1.77;;;1.65;;
22449;SDS011;11392;57.390;-2.468;2023-08-07T07:59:56;1.65;;;1.27;;
22449;SDS011;11392;57.390;-2.468;2023-08-07T08:02:23;1.58;;;1.35;;
22449;SDS011;11392;57.390;-2.468;2023-08-07T08:04:51;1.65;;;1.40;;
22449;SDS011;11392;57.390;-2.468;2023-08-07T08:07:18;1.42;;;1.33;;
22449;SDS011;11392;57.390;-2.468;2023-08-07T08:09:45;2.42;;;2.22;;
22449;SDS011;11392;57.390;-2.468;2023-08-07T08:12:13;1.40;;;1.30;;
22449;SDS011;11392;57.390;-2.468;2023-08-07T08:14:40;2.10;;;1.70;;
22449;SDS011;11392;57.390;-2.468;2023-08-07T08:17:21;1.50;;;1.40;;
22449;SDS011;11392;57.390;-2.468;2023-08-07T08:19:49;1.52;;;1.42;;
22449;SDS011;11392;57.390;-2.468;2023-08-07T08:22:17;1.50;;;1.40;;
22449;SDS011;11392;57.390;-2.468;2023-08-07T08:24:45;1.40;;;1.30;;
22449;SDS011;11392;57.390;-2.468;2023-08-07T08:27:14;2.85;;;1.63;;
22449;SDS011;11392;57.390;-2.468;2023-08-07T08:29:41;1.75;;;1.65;;
22449;SDS011;11392;57.390;-2.468;2023-08-07T08:32:08;1.95;;;1.70;;
22449;SDS011;11392;57.390;-2.468;2023-08-07T08:34:35;1.60;;;1.50;;
22449;SDS011;11392;57.390;-2.468;2023-08-07T08:37:02;2.25;;;1.55;;
22449;SDS011;11392;57.390;-2.468;2023-08-07T08:39:32;1.88;;;1.60;;
22449;SDS011;11392;57.390;-2.468;2023-08-07T08:41:59;1.48;;;1.33;;
22449;SDS011;11392;57.390;-2.468;2023-08-07T08:44:27;1.55;;;1.45;;
22449;SDS011;11392;57.390;-2.468;2023-08-07T08:46:59;1.48;;;1.38;;
22449;SDS011;11392;57.390;-2.468;2023-08-07T08:49:37;1.40;;;1.30;;
22449;SDS011;11392;57.390;-2.468;2023-08-07T08:52:17;2.28;;;1.63;;
22449;SDS011;11392;57.390;-2.468;2023-08-07T08:54:44;1.23;;;1.10;;
22449;SDS011;11392;57.390;-2.468;2023-08-07T08:57:11;1.45;;;1.35;;
22449;SDS011;11392;57.390;-2.468;2023-08-07T08:59:42;1.17;;;1.13;;
22449;SDS011;11392;57.390;-2.468;2023-08-07T09:02:09;0.98;;;0.95;;
22449;SDS011;11392;57.390;-2.468;2023-08-07T09:04:36;1.40;;;1.10;;
22449;SDS011;11392;57.390;-2.468;2023-08-07T09:07:04;1.10;;;1.10;;
22449;SDS011;11392;57.390;-2.468;2023-08-07T09:09:32;1.20;;;1.10;;
22449;SDS011;11392;57.390;-2.468;2023-08-07T09:12:00;2.33;;;1.20;;
22449;SDS011;11392;57.390;-2.468;2023-08-07T09:14:29;1.30;;;1.20;;
22449;SDS011;11392;57.390;-2.468;2023-08-07T09:17:00;1.58;;;1.23;;
22449;SDS011;11392;57.390;-2.468;2023-08-07T09:19:28;1.65;;;0.90;;
22449;SDS011;11392;57.390;-2.468;2023-08-07T09:21:55;1.30;;;1.20;;
22449;SDS011;11392;57.390;-2.468;2023-08-07T09:24:22;1.20;;;1.00;;
22449;SDS011;11392;57.390;-2.468;2023-08-07T09:26:51;0.90;;;0.90;;
22449;SDS011;11392;57.390;-2.468;2023-08-07T09:29:20;17.98;;;2.53;;
22449;SDS011;11392;57.390;-2.468;2023-08-07T09:31:48;6.82;;;1.20;;
22449;SDS011;11392;57.390;-2.468;2023-08-07T09:34:16;1.92;;;1.20;;
22449;SDS011;11392;57.390;-2.468;2023-08-07T09:36:46;2.15;;;1.08;;
22449;SDS011;11392;57.390;-2.468;2023-08-07T09:39:14;2.45;;;1.00;;
22449;SDS011;11392;57.390;-2.468;2023-08-07T09:41:41;2.45;;;1.05;;
22449;SDS011;11392;57.390;-2.468;2023-08-07T09:44:09;1.27;;;0.82;;
22449;SDS011;11392;57.390;-2.468;2023-08-07T09:46:40;1.10;;;1.00;;
22449;SDS011;11392;57.390;-2.468;2023-08-07T09:49:09;1.13;;;1.02;;
22449;SDS011;11392;57.390;-2.468;2023-08-07T09:51:46;1.10;;;0.93;;
22449;SDS011;11392;57.390;-2.468;2023-08-07T09:54:14;0.93;;;0.80;;
22449;SDS011;11392;57.390;-2.468;2023-08-07T09:56:41;0.63;;;0.63;;
22449;SDS011;11392;57.390;-2.468;2023-08-07T09:59:08;0.75;;;0.73;;
22449;SDS011;11392;57.390;-2.468;2023-08-07T10:01:38;1.02;;;1.00;;
22449;SDS011;11392;57.390;-2.468;2023-08-07T10:04:06;1.63;;;0.90;;
22449;SDS011;11392;57.390;-2.468;2023-08-07T10:06:34;0.70;;;0.70;;
22449;SDS011;11392;57.390;-2.468;2023-08-07T10:09:01;0.70;;;0.70;;
22449;SDS011;11392;57.390;-2.468;2023-08-07T10:11:30;0.70;;;0.70;;
22449;SDS011;11392;57.390;-2.468;2023-08-07T10:13:57;0.70;;;0.70;;
22449;SDS011;11392;57.390;-2.468;2023-08-07T10:16:25;1.10;;;1.00;;
22449;SDS011;11392;57.390;-2.468;2023-08-07T10:18:54;1.02;;;0.80;;
22449;SDS011;11392;57.390;-2.468;2023-08-07T10:21:22;0.80;;;0.80;;
22449;SDS011;11392;57.390;-2.468;2023-08-07T10:23:53;0.88;;;0.88;;
22449;SDS011;11392;57.390;-2.468;2023-08-07T10:26:23;0.93;;;0.93;;
22449;SDS011;11392;57.390;-2.468;2023-08-07T10:28:51;0.70;;;0.70;;
22449;SDS011;11392;57.390;-2.468;2023-08-07T10:31:20;1.38;;;1.10;;
22449;SDS011;11392;57.390;-2.468;2023-08-07T10:33:49;1.38;;;0.80;;
22449;SDS011;11392;57.390;-2.468;2023-08-07T10:36:18;1.63;;;0.75;;
22449;SDS011;11392;57.390;-2.468;2023-08-07T10:38:48;0.80;;;0.80;;
22449;SDS011;11392;57.390;-2.468;2023-08-07T10:41:17;0.93;;;0.70;;
22449;SDS011;11392;57.390;-2.468;2023-08-07T10:43:45;0.90;;;0.80;;
22449;SDS011;11392;57.390;-2.468;2023-08-07T10:46:20;0.60;;;0.60;;
22449;SDS011;11392;57.390;-2.468;2023-08-07T10:48:53;0.95;;;0.85;;
22449;SDS011;11392;57.390;-2.468;2023-08-07T10:51:27;0.82;;;0.60;;
22449;SDS011;11392;57.390;-2.468;2023-08-07T10:53:58;1.27;;;0.80;;
22449;SDS011;11392;57.390;-2.468;2023-08-07T10:56:31;0.77;;;0.70;;
22449;SDS011;11392;57.390;-2.468;2023-08-07T10:59:08;0.65;;;0.65;;
22449;SDS011;11392;57.390;-2.468;2023-08-07T11:01:40;0.60;;;0.45;;
22449;SDS011;11392;57.390;-2.468;2023-08-07T11:04:09;0.57;;;0.55;;
22449;SDS011;11392;57.390;-2.468;2023-08-07T11:06:41;0.70;;;0.70;;
22449;SDS011;11392;57.390;-2.468;2023-08-07T11:09:09;1.90;;;0.60;;
22449;SDS011;11392;57.390;-2.468;2023-08-07T11:11:44;0.35;;;0.35;;
22449;SDS011;11392;57.390;-2.468;2023-08-07T11:14:13;0.60;;;0.55;;
22449;SDS011;11392;57.390;-2.468;2023-08-07T11:16:42;0.60;;;0.60;;
22449;SDS011;11392;57.390;-2.468;2023-08-07T11:19:11;0.60;;;0.43;;
22449;SDS011;11392;57.390;-2.468;2023-08-07T11:21:40;0.80;;;0.60;;
22449;SDS011;11392;57.390;-2.468;2023-08-07T11:24:11;1.83;;;0.50;;
22449;SDS011;11392;57.390;-2.468;2023-08-07T11:26:39;0.70;;;0.70;;
22449;SDS011;11392;57.390;-2.468;2023-08-07T11:29:08;2.65;;;1.10;;
22449;SDS011;11392;57.390;-2.468;2023-08-07T11:31:35;0.60;;;0.60;;
22449;SDS011;11392;57.390;-2.468;2023-08-07T11:34:03;0.50;;;0.50;;
22449;SDS011;11392;57.390;-2.468;2023-08-07T11:36:30;0.45;;;0.30;;
22449;SDS011;11392;57.390;-2.468;2023-08-07T11:38:58;0.30;;;0.30;;
22449;SDS011;11392;57.390;-2.468;2023-08-07T11:41:25;0.63;;;0.50;;
22449;SDS011;11392;57.390;-2.468;2023-08-07T11:43:52;0.60;;;0.40;;
22449;SDS011;11392;57.390;-2.468;2023-08-07T11:46:19;0.85;;;0.30;;
22449;SDS011;11392;57.390;-2.468;2023-08-07T11:48:47;0.40;;;0.38;;
22449;SDS011;11392;57.390;-2.468;2023-08-07T11:51:14;0.65;;;0.43;;
22449;SDS011;11392;57.390;-2.468;2023-08-07T11:53:42;0.47;;;0.47;;
22449;SDS011;11392;57.390;-2.468;2023-08-07T11:56:10;0.88;;;0.45;;
22449;SDS011;11392;57.390;-2.468;2023-08-07T11:58:41;0.50;;;0.43;;
22449;SDS011;11392;57.390;-2.468;2023-08-07T12:01:13;1.15;;;0.50;;
22449;SDS011;11392;57.390;-2.468;2023-08-07T12:06:20;1.08;;;0.70;;
22449;SDS011;11392;57.390;-2.468;2023-08-07T12:08:48;0.73;;;0.60;;
22449;SDS011;11392;57.390;-2.468;2023-08-07T12:11:19;0.77;;;0.70;;
22449;SDS011;11392;57.390;-2.468;2023-08-07T12:13:49;0.60;;;0.60;;
22449;SDS011;11392;57.390;-2.468;2023-08-07T12:16:17;1.83;;;0.75;;
22449;SDS011;11392;57.390;-2.468;2023-08-07T12:18:45;0.82;;;0.70;;
22449;SDS011;11392;57.390;-2.468;2023-08-07T12:21:20;0.63;;;0.50;;
22449;SDS011;11392;57.390;-2.468;2023-08-07T12:23:54;0.60;;;0.60;;
22449;SDS011;11392;57.390;-2.468;2023-08-07T12:26:22;0.75;;;0.75;;
22449;SDS011;11392;57.390;-2.468;2023-08-07T12:28:49;0.90;;;0.60;;
22449;SDS011;11392;57.390;-2.468;2023-08-07T12:31:17;0.45;;;0.45;;
22449;SDS011;11392;57.390;-2.468;2023-08-07T12:33:45;0.50;;;0.50;;
22449;SDS011;11392;57.390;-2.468;2023-08-07T12:36:12;0.50;;;0.50;;
22449;SDS011;11392;57.390;-2.468;2023-08-07T12:38:44;0.50;;;0.40;;
22449;SDS011;11392;57.390;-2.468;2023-08-07T12:41:11;0.50;;;0.50;;
22449;SDS011;11392;57.390;-2.468;2023-08-07T12:43:41;0.50;;;0.50;;
22449;SDS011;11392;57.390;-2.468;2023-08-07T12:46:08;0.40;;;0.40;;
22449;SDS011;11392;57.390;-2.468;2023-08-07T12:48:38;0.43;;;0.43;;
22449;SDS011;11392;57.390;-2.468;2023-08-07T12:51:05;0.45;;;0.45;;
22449;SDS011;11392;57.390;-2.468;2023-08-07T12:53:32;0.65;;;0.50;;
22449;SDS011;11392;57.390;-2.468;2023-08-07T12:55:59;0.40;;;0.40;;
22449;SDS011;11392;57.390;-2.468;2023-08-07T12:58:28;1.30;;;0.40;;
22449;SDS011;11392;57.390;-2.468;2023-08-07T13:00:56;0.50;;;0.50;;
22449;SDS011;11392;57.390;-2.468;2023-08-07T13:03:23;0.50;;;0.50;;
22449;SDS011;11392;57.390;-2.468;2023-08-07T13:05:51;0.50;;;0.50;;
22449;SDS011;11392;57.390;-2.468;2023-08-07T13:08:18;1.63;;;0.60;;
22449;SDS011;11392;57.390;-2.468;2023-08-07T13:10:45;0.50;;;0.50;;
22449;SDS011;11392;57.390;-2.468;2023-08-07T13:13:15;0.43;;;0.40;;
22449;SDS011;11392;57.390;-2.468;2023-08-07T13:15:42;0.70;;;0.57;;
22449;SDS011;11392;57.390;-2.468;2023-08-07T13:18:09;0.73;;;0.60;;
22449;SDS011;11392;57.390;-2.468;2023-08-07T13:20:37;0.63;;;0.50;;
22449;SDS011;11392;57.390;-2.468;2023-08-07T13:23:04;0.77;;;0.70;;
22449;SDS011;11392;57.390;-2.468;2023-08-07T13:25:33;0.68;;;0.68;;
22449;SDS011;11392;57.390;-2.468;2023-08-07T13:28:00;0.57;;;0.57;;
22449;SDS011;11392;57.390;-2.468;2023-08-07T13:30:30;0.90;;;0.68;;
22449;SDS011;11392;57.390;-2.468;2023-08-07T13:33:02;0.40;;;0.40;;
22449;SDS011;11392;57.390;-2.468;2023-08-07T13:35:29;1.95;;;0.70;;
22449;SDS011;11392;57.390;-2.468;2023-08-07T13:37:57;0.57;;;0.50;;
22449;SDS011;11392;57.390;-2.468;2023-08-07T13:40:24;0.32;;;0.32;;
22449;SDS011;11392;57.390;-2.468;2023-08-07T13:42:52;0.40;;;0.40;;
22449;SDS011;11392;57.390;-2.468;2023-08-07T13:45:19;0.63;;;0.47;;
22449;SDS011;11392;57.390;-2.468;2023-08-07T13:47:46;0.85;;;0.60;;
22449;SDS011;11392;57.390;-2.468;2023-08-07T13:50:14;0.50;;;0.40;;
22449;SDS011;11392;57.390;-2.468;2023-08-07T13:52:41;0.50;;;0.50;;
22449;SDS011;11392;57.390;-2.468;2023-08-07T13:55:09;0.50;;;0.40;;
22449;SDS011;11392;57.390;-2.468;2023-08-07T13:57:37;0.40;;;0.40;;
22449;SDS011;11392;57.390;-2.468;2023-08-07T14:00:04;1.40;;;0.70;;
22449;SDS011;11392;57.390;-2.468;2023-08-07T14:02:32;0.75;;;0.63;;
22449;SDS011;11392;57.390;-2.468;2023-08-07T14:05:01;0.50;;;0.47;;
22449;SDS011;11392;57.390;-2.468;2023-08-07T14:07:28;2.28;;;0.38;;
22449;SDS011;11392;57.390;-2.468;2023-08-07T14:09:55;0.52;;;0.45;;
22449;SDS011;11392;57.390;-2.468;2023-08-07T14:12:23;0.50;;;0.40;;
22449;SDS011;11392;57.390;-2.468;2023-08-07T14:14:50;0.50;;;0.50;;
22449;SDS011;11392;57.390;-2.468;2023-08-07T14:17:17;0.57;;;0.40;;
22449;SDS011;11392;57.390;-2.468;2023-08-07T14:19:44;0.70;;;0.45;;
22449;SDS011;11392;57.390;-2.468;2023-08-07T14:22:11;0.65;;;0.40;;
22449;SDS011;11392;57.390;-2.468;2023-08-07T14:24:39;0.88;;;0.38;;
22449;SDS011;11392;57.390;-2.468;2023-08-07T14:27:06;0.82;;;0.45;;
22449;SDS011;11392;57.390;-2.468;2023-08-07T14:29:33;0.73;;;0.50;;
22449;SDS011;11392;57.390;-2.468;2023-08-07T14:32:00;0.52;;;0.50;;
22449;SDS011;11392;57.390;-2.468;2023-08-07T14:34:28;0.88;;;0.50;;
22449;SDS011;11392;57.390;-2.468;2023-08-07T14:36:55;1.33;;;0.60;;
22449;SDS011;11392;57.390;-2.468;2023-08-07T14:39:22;0.50;;;0.50;;
22449;SDS011;11392;57.390;-2.468;2023-08-07T14:41:49;0.82;;;0.52;;
22449;SDS011;11392;57.390;-2.468;2023-08-07T14:44:18;1.65;;;0.60;;
22449;SDS011;11392;57.390;-2.468;2023-08-07T14:46:48;1.35;;;0.93;;
22449;SDS011;11392;57.390;-2.468;2023-08-07T14:49:15;0.85;;;0.50;;